Time;durP1;ratioP1;P1;durP2;ratioP2;P2;SDS_P1;SDS_P2;PMS_P1;PMS_P2;Temp;Humidity;BMP_temperature;BMP_pressure;BME280_temperature;BME280_humidity;BME280_pressure;Samples;Min_cycle;Max_cycle;Signal;HPM_P1;HPM_P2
2022/03/11 00:01:25;;;;;;;0.40;0.40;;;-2.70;99.90;;;;;;5239108;28;20040;-71
2022/03/11 00:03:59;;;;;;;2.00;1.90;;;-2.80;99.90;;;;;;5250371;28;20497;-73
2022/03/11 00:06:30;;;;;;;0.50;0.50;;;-2.80;99.90;;;;;;5222563;28;20370;-73
2022/03/11 00:09:03;;;;;;;0.30;0.30;;;-2.70;99.90;;;;;;5266566;28;20028;-71
2022/03/11 00:11:37;;;;;;;0.63;0.63;;;-2.70;99.90;;;;;;5251294;28;20035;-71
2022/03/11 00:14:08;;;;;;;0.40;0.40;;;-2.70;99.90;;;;;;5251596;28;20034;-72
2022/03/11 00:16:44;;;;;;;0.40;0.40;;;-2.70;99.90;;;;;;5261127;28;20040;-71
2022/03/11 00:19:18;;;;;;;2.80;2.70;;;-2.70;99.90;;;;;;5247893;28;20038;-71
2022/03/11 00:21:54;;;;;;;0.50;0.50;;;-2.80;99.90;;;;;;5229724;28;20024;-73
2022/03/11 00:24:32;;;;;;;0.50;0.50;;;-2.90;99.90;;;;;;5248606;28;20653;-72
2022/03/11 00:27:09;;;;;;;0.37;0.37;;;-2.90;99.90;;;;;;5251014;28;20038;-73
2022/03/11 00:29:42;;;;;;;0.40;0.40;;;-2.80;99.90;;;;;;5248709;28;20038;-73
2022/03/11 00:32:14;;;;;;;0.47;0.47;;;-2.80;99.90;;;;;;5234948;28;20058;-74
2022/03/11 00:34:50;;;;;;;0.70;0.70;;;-2.90;99.90;;;;;;5261206;28;20027;-72
2022/03/11 00:37:22;;;;;;;0.30;0.30;;;-3.00;99.90;;;;;;5233969;28;20040;-72
2022/03/11 00:39:55;;;;;;;0.80;0.77;;;-3.00;99.90;;;;;;5255423;28;20038;-71
2022/03/11 00:42:35;;;;;;;0.43;0.43;;;-3.10;99.90;;;;;;5268003;28;20024;-73
2022/03/11 00:45:17;;;;;;;0.40;0.40;;;-3.10;99.90;;;;;;5266802;28;20042;-72
2022/03/11 00:47:51;;;;;;;0.70;0.70;;;-3.20;99.90;;;;;;5270972;28;20026;-71
2022/03/11 00:50:25;;;;;;;0.50;0.50;;;-3.30;99.90;;;;;;5249100;28;20070;-73
2022/03/11 00:53:02;;;;;;;0.60;0.60;;;-3.30;99.90;;;;;;5234119;28;20032;-73
2022/03/11 00:55:33;;;;;;;0.60;0.60;;;-3.20;99.90;;;;;;5232295;28;20042;-73
2022/03/11 00:58:06;;;;;;;1.13;1.13;;;-3.30;99.90;;;;;;5247863;28;20330;-73
2022/03/11 01:00:40;;;;;;;1.47;1.47;;;-3.30;99.90;;;;;;5268404;28;20032;-72
2022/03/11 01:03:18;;;;;;;0.40;0.40;;;-3.40;99.90;;;;;;5254314;28;20040;-72
2022/03/11 01:05:53;;;;;;;0.50;0.50;;;-3.50;99.90;;;;;;5256662;28;20056;-73
2022/03/11 01:08:28;;;;;;;0.83;0.83;;;-3.50;99.90;;;;;;5236473;28;20040;-72
2022/03/11 01:11:08;;;;;;;1.67;1.57;;;-3.60;99.90;;;;;;5263685;28;20027;-73
2022/03/11 01:13:40;;;;;;;0.50;0.50;;;-3.60;99.90;;;;;;5245090;28;20550;-73
2022/03/11 01:16:16;;;;;;;0.50;0.50;;;-3.70;99.90;;;;;;5263256;28;20247;-73
2022/03/11 01:18:49;;;;;;;0.97;0.97;;;-3.70;99.90;;;;;;5266285;28;20043;-72
2022/03/11 01:21:23;;;;;;;0.40;0.40;;;-3.70;99.90;;;;;;5250120;28;20032;-74
2022/03/11 01:23:57;;;;;;;0.50;0.50;;;-3.60;99.90;;;;;;5259723;28;20036;-73
2022/03/11 01:26:31;;;;;;;0.40;0.40;;;-3.50;99.90;;;;;;5242407;28;20039;-74
2022/03/11 01:29:08;;;;;;;0.40;0.40;;;-3.40;99.90;;;;;;5243983;28;20234;-72
2022/03/11 01:31:39;;;;;;;0.40;0.40;;;-3.30;99.90;;;;;;5228611;28;20040;-72
2022/03/11 01:34:14;;;;;;;0.50;0.50;;;-3.30;99.90;;;;;;5260363;28;20052;-71
2022/03/11 01:36:48;;;;;;;0.52;0.52;;;-3.10;99.90;;;;;;5264561;28;20042;-74
2022/03/11 01:39:20;;;;;;;0.40;0.40;;;-3.10;99.90;;;;;;5226672;28;20475;-74
2022/03/11 01:41:52;;;;;;;0.57;0.57;;;-3.10;99.90;;;;;;5248220;28;20032;-72
2022/03/11 01:44:26;;;;;;;0.40;0.40;;;-3.10;99.90;;;;;;5240327;28;20046;-72
2022/03/11 01:47:00;;;;;;;2.60;2.40;;;-3.00;99.90;;;;;;5245302;28;20375;-74
2022/03/11 01:49:34;;;;;;;0.63;0.63;;;-3.00;99.90;;;;;;5227846;28;20066;-72
2022/03/11 01:52:09;;;;;;;0.65;0.65;;;-3.00;99.90;;;;;;5223904;28;20031;-72
2022/03/11 01:54:49;;;;;;;0.47;0.47;;;-2.90;99.90;;;;;;5237743;28;20036;-72
2022/03/11 01:57:21;;;;;;;0.47;0.47;;;-2.90;99.90;;;;;;5244761;28;20040;-71
2022/03/11 01:59:57;;;;;;;0.30;0.30;;;-2.80;99.90;;;;;;5234914;28;20352;-72
2022/03/11 02:02:33;;;;;;;1.30;1.30;;;-2.80;99.90;;;;;;5261385;28;20348;-72
2022/03/11 02:05:10;;;;;;;0.70;0.70;;;-2.80;99.90;;;;;;5234729;28;20284;-72
2022/03/11 02:07:43;;;;;;;0.40;0.40;;;-2.90;99.90;;;;;;5214634;28;20040;-72
2022/03/11 02:10:29;;;;;;;0.40;0.40;;;-2.90;99.90;;;;;;5223477;28;20182;-71
2022/03/11 02:13:07;;;;;;;0.40;0.40;;;-2.90;99.90;;;;;;5243140;28;20039;-71
2022/03/11 02:15:38;;;;;;;0.37;0.37;;;-2.80;99.90;;;;;;5224008;28;20342;-72
2022/03/11 02:18:10;;;;;;;6.97;3.50;;;-2.80;99.90;;;;;;5222940;28;20340;-72
2022/03/11 02:20:46;;;;;;;0.50;0.50;;;-2.80;99.90;;;;;;5209200;28;20036;-71
2022/03/11 02:23:18;;;;;;;0.73;0.73;;;-2.80;99.90;;;;;;5240055;28;20031;-73
2022/03/11 02:25:50;;;;;;;0.40;0.40;;;-2.80;99.90;;;;;;5227265;28;20115;-73
2022/03/11 02:28:34;;;;;;;0.40;0.40;;;-2.90;99.90;;;;;;5260052;28;20044;-72
2022/03/11 02:31:08;;;;;;;0.40;0.40;;;-2.90;99.90;;;;;;5243867;28;20087;-74
2022/03/11 02:33:48;;;;;;;2.00;1.92;;;-2.90;99.90;;;;;;5224464;28;20039;-71
2022/03/11 02:36:25;;;;;;;0.50;0.50;;;-2.90;99.90;;;;;;5260991;28;20036;-71
2022/03/11 02:39:03;;;;;;;1.67;1.57;;;-2.90;99.90;;;;;;5243566;28;20040;-72
2022/03/11 02:41:41;;;;;;;0.47;0.47;;;-3.00;99.90;;;;;;5256769;28;20048;-73
2022/03/11 02:44:12;;;;;;;0.43;0.43;;;-3.00;99.90;;;;;;5282211;28;20040;-71
2022/03/11 02:46:44;;;;;;;0.40;0.40;;;-3.10;99.90;;;;;;5246744;28;20040;-72
2022/03/11 02:49:21;;;;;;;0.40;0.40;;;-3.10;99.90;;;;;;5235937;28;20044;-71
2022/03/11 02:51:59;;;;;;;0.47;0.47;;;-3.10;99.90;;;;;;5258026;28;20024;-72
2022/03/11 02:54:32;;;;;;;1.50;1.40;;;-3.10;99.90;;;;;;5222888;28;20044;-71
2022/03/11 02:57:03;;;;;;;0.57;0.57;;;-3.10;99.90;;;;;;5206519;28;20070;-73
2022/03/11 02:59:35;;;;;;;1.00;1.00;;;-3.20;99.90;;;;;;5240728;28;20214;-71
2022/03/11 03:02:06;;;;;;;0.50;0.50;;;-3.20;99.90;;;;;;5240347;28;20046;-71
2022/03/11 03:04:46;;;;;;;0.40;0.40;;;-3.20;99.90;;;;;;5232485;28;20067;-71
2022/03/11 03:07:25;;;;;;;0.40;0.40;;;-3.20;99.90;;;;;;5221132;28;20019;-70
2022/03/11 03:10:04;;;;;;;0.40;0.40;;;-3.30;99.90;;;;;;5239097;28;20032;-71
2022/03/11 03:12:38;;;;;;;0.60;0.60;;;-3.20;99.90;;;;;;5237157;28;20335;-71
2022/03/11 03:15:12;;;;;;;1.20;1.20;;;-3.30;99.90;;;;;;5260150;28;20652;-72
2022/03/11 03:17:43;;;;;;;0.40;0.40;;;-3.40;99.90;;;;;;5226072;28;20548;-72
2022/03/11 03:20:18;;;;;;;0.40;0.40;;;-3.40;99.90;;;;;;5242360;28;20032;-71
2022/03/11 03:22:52;;;;;;;;;;;-3.50;99.90;;;;;;5225775;28;20517;-71
2022/03/11 03:25:26;;;;;;;0.60;0.60;;;-3.40;99.90;;;;;;5243534;28;19908;-71
2022/03/11 03:27:59;;;;;;;0.50;0.50;;;-3.40;99.90;;;;;;5244109;28;20028;-72
2022/03/11 03:30:34;;;;;;;0.60;0.60;;;-3.30;99.90;;;;;;5261206;28;20032;-71
2022/03/11 03:33:06;;;;;;;0.60;0.60;;;-3.30;99.90;;;;;;5243721;28;20040;-71
2022/03/11 03:35:41;;;;;;;0.50;0.50;;;-3.30;99.90;;;;;;5242452;28;20070;-71
2022/03/11 03:38:17;;;;;;;0.40;0.40;;;-3.40;99.90;;;;;;5243695;28;20048;-71
2022/03/11 03:40:51;;;;;;;0.40;0.40;;;-3.40;99.90;;;;;;5247876;28;20454;-72
2022/03/11 03:43:26;;;;;;;0.60;0.60;;;-3.40;99.90;;;;;;5247707;28;20023;-73
2022/03/11 03:46:00;;;;;;;0.73;0.73;;;-3.40;99.90;;;;;;5262551;28;20399;-71
2022/03/11 03:48:31;;;;;;;0.83;0.83;;;-3.50;99.90;;;;;;5242421;28;20027;-69
2022/03/11 03:51:06;;;;;;;0.80;0.80;;;-3.50;99.90;;;;;;5226275;28;20043;-71
2022/03/11 03:53:38;;;;;;;1.80;1.70;;;-3.50;99.90;;;;;;5261319;28;20039;-71
2022/03/11 03:56:10;;;;;;;0.50;0.50;;;-3.60;99.90;;;;;;5243766;28;20345;-71
2022/03/11 03:58:41;;;;;;;0.50;0.50;;;-3.60;99.90;;;;;;5232437;28;20469;-70
2022/03/11 04:01:15;;;;;;;1.20;1.17;;;-3.50;99.90;;;;;;5221791;28;20055;-71
2022/03/11 04:03:47;;;;;;;0.50;0.50;;;-3.60;99.90;;;;;;5222169;28;20658;-74
2022/03/11 04:06:21;;;;;;;0.40;0.40;;;-3.60;99.90;;;;;;5236483;28;20044;-71
2022/03/11 04:08:52;;;;;;;0.32;0.32;;;-3.60;99.90;;;;;;5243419;28;20540;-71
2022/03/11 04:11:25;;;;;;;2.13;2.03;;;-3.70;99.90;;;;;;5205676;28;20604;-71
2022/03/11 04:13:58;;;;;;;0.60;0.60;;;-3.70;99.90;;;;;;5222587;28;20044;-72
2022/03/11 04:16:29;;;;;;;0.33;0.33;;;-3.70;99.90;;;;;;5249903;28;20469;-72
2022/03/11 04:19:06;;;;;;;0.60;0.60;;;-3.70;99.90;;;;;;5242554;28;20032;-73
2022/03/11 04:21:40;;;;;;;0.70;0.70;;;-3.80;99.90;;;;;;5244098;28;20042;-71
2022/03/11 04:24:14;;;;;;;0.40;0.40;;;-3.80;99.90;;;;;;5261984;28;20040;-72
2022/03/11 04:26:46;;;;;;;0.50;0.50;;;-3.80;99.90;;;;;;5244816;28;20482;-73
2022/03/11 04:29:18;;;;;;;0.40;0.40;;;-3.90;99.90;;;;;;5244839;28;20035;-71
2022/03/11 04:31:56;;;;;;;0.33;0.33;;;-3.90;99.90;;;;;;5244937;28;20024;-71
2022/03/11 04:34:29;;;;;;;0.57;0.57;;;-3.90;99.90;;;;;;5246035;28;20055;-70
2022/03/11 04:37:01;;;;;;;0.40;0.40;;;-3.90;99.90;;;;;;5246999;28;20040;-73
2022/03/11 04:39:35;;;;;;;0.50;0.50;;;-3.90;99.90;;;;;;5261009;28;20058;-71
2022/03/11 04:42:14;;;;;;;0.50;0.50;;;-3.90;99.90;;;;;;5257482;28;20043;-72
2022/03/11 04:44:45;;;;;;;0.50;0.50;;;-3.90;99.90;;;;;;5229136;28;20402;-71
2022/03/11 04:47:23;;;;;;;0.60;0.60;;;-3.90;99.90;;;;;;5263343;28;20069;-71
2022/03/11 04:50:05;;;;;;;0.40;0.40;;;-4.00;99.90;;;;;;5263556;28;20034;-73
2022/03/11 04:52:39;;;;;;;0.50;0.50;;;-4.00;99.90;;;;;;5229350;28;20050;-71
2022/03/11 04:55:15;;;;;;;0.50;0.50;;;-4.10;99.90;;;;;;5264064;28;20378;-72
2022/03/11 04:57:47;;;;;;;0.50;0.50;;;-4.10;99.90;;;;;;5248467;28;20052;-72
2022/03/11 05:00:26;;;;;;;0.50;0.50;;;-4.10;99.90;;;;;;5248860;28;20036;-71
2022/03/11 05:02:58;;;;;;;0.50;0.50;;;-4.20;99.90;;;;;;5235302;28;20036;-71
2022/03/11 05:05:31;;;;;;;0.33;0.33;;;-4.20;99.90;;;;;;5230268;28;20322;-71
2022/03/11 05:08:05;;;;;;;0.40;0.40;;;-4.20;99.90;;;;;;5231939;28;20242;-72
2022/03/11 05:10:42;;;;;;;0.40;0.40;;;-4.20;99.90;;;;;;5227493;28;20036;-73
2022/03/11 05:13:13;;;;;;;2.40;1.47;;;-4.20;99.90;;;;;;5214588;28;20043;-71
2022/03/11 05:15:56;;;;;;;0.50;0.50;;;-4.30;99.90;;;;;;5243511;28;20028;-71
2022/03/11 05:18:30;;;;;;;0.30;0.30;;;-4.30;99.90;;;;;;5263533;28;20337;-72
2022/03/11 05:21:05;;;;;;;0.40;0.40;;;-4.30;99.90;;;;;;5245110;28;20047;-71
2022/03/11 05:23:37;;;;;;;0.70;0.70;;;-4.30;99.90;;;;;;5246086;28;20042;-71
2022/03/11 05:26:24;;;;;;;0.30;0.30;;;-4.30;99.90;;;;;;5264122;28;20433;-72
2022/03/11 05:29:02;;;;;;;0.43;0.43;;;-4.30;99.90;;;;;;5248991;28;20044;-71
2022/03/11 05:31:36;;;;;;;0.50;0.50;;;-4.30;99.90;;;;;;5246536;28;20031;-71
2022/03/11 05:34:08;;;;;;;;;;;-4.30;99.90;;;;;;5247422;28;20049;-71
2022/03/11 05:36:43;;;;;;;0.63;0.63;;;-4.20;99.90;;;;;;5229539;28;20070;-71
2022/03/11 05:39:16;;;;;;;0.30;0.30;;;-4.10;99.90;;;;;;5262595;28;20036;-72
2022/03/11 05:41:52;;;;;;;0.47;0.47;;;-4.10;99.90;;;;;;5228657;28;20020;-72
2022/03/11 05:44:25;;;;;;;0.50;0.50;;;-4.00;99.90;;;;;;5223340;28;20485;-71
2022/03/11 05:46:57;;;;;;;0.50;0.50;;;-3.90;99.90;;;;;;5245279;28;20020;-71
2022/03/11 05:49:33;;;;;;;0.50;0.50;;;-3.80;99.90;;;;;;5268164;28;20034;-73
2022/03/11 05:52:04;;;;;;;0.50;0.50;;;-3.70;99.90;;;;;;5208204;28;20032;-72
2022/03/11 05:54:37;;;;;;;0.40;0.40;;;-3.60;99.90;;;;;;5207081;28;20537;-71
2022/03/11 05:57:12;;;;;;;0.73;0.73;;;-3.50;99.90;;;;;;5235080;28;20035;-71
2022/03/11 05:59:46;;;;;;;0.80;0.80;;;-3.40;99.90;;;;;;5242844;28;20044;-71
2022/03/11 06:02:23;;;;;;;0.40;0.40;;;-3.30;99.90;;;;;;5224818;28;20048;-72
2022/03/11 06:04:54;;;;;;;2.30;2.20;;;-3.20;99.90;;;;;;5230809;28;20062;-71
2022/03/11 06:07:26;;;;;;;0.40;0.40;;;-3.10;99.90;;;;;;5232876;28;20030;-72
2022/03/11 06:10:03;;;;;;;0.60;0.60;;;-3.00;99.90;;;;;;5215831;28;20042;-72
2022/03/11 06:12:40;;;;;;;0.47;0.47;;;-2.90;99.90;;;;;;5227673;28;20584;-72
2022/03/11 06:15:15;;;;;;;0.40;0.40;;;-2.80;99.90;;;;;;5256436;28;20213;-72
2022/03/11 06:17:47;;;;;;;1.43;1.37;;;-2.70;99.90;;;;;;5227715;28;20043;-74
2022/03/11 06:20:21;;;;;;;0.60;0.60;;;-2.50;99.90;;;;;;5261952;28;20186;-72
2022/03/11 06:22:53;;;;;;;0.60;0.60;;;-2.40;99.90;;;;;;5263874;28;20024;-75
2022/03/11 06:25:25;;;;;;;1.07;0.97;;;-2.40;99.90;;;;;;5262767;28;20039;-76
2022/03/11 06:27:56;;;;;;;0.90;0.90;;;-2.20;99.90;;;;;;5249026;28;20032;-74
2022/03/11 06:30:28;;;;;;;0.30;0.30;;;-2.20;99.90;;;;;;5252119;28;20455;-74
2022/03/11 06:32:59;;;;;;;0.90;0.90;;;-2.10;99.90;;;;;;5221959;28;20036;-76
2022/03/11 06:35:31;;;;;;;0.40;0.40;;;-1.90;99.90;;;;;;5232487;28;20075;-74
2022/03/11 06:38:03;;;;;;;0.70;0.70;;;-1.90;99.90;;;;;;5243808;28;20366;-74
2022/03/11 06:40:35;;;;;;;0.70;0.70;;;-1.90;99.90;;;;;;5253055;28;20039;-76
2022/03/11 06:43:06;;;;;;;2.70;1.33;;;-1.80;99.90;;;;;;5270769;28;20356;-75
2022/03/11 06:45:38;;;;;;;0.47;0.47;;;-1.80;99.90;;;;;;5265865;28;20038;-75
2022/03/11 06:48:09;;;;;;;1.27;1.23;;;-1.60;99.90;;;;;;5253925;28;20050;-76
2022/03/11 06:50:43;;;;;;;1.20;1.10;;;-1.60;99.90;;;;;;5247650;28;20036;-78
2022/03/11 06:53:16;;;;;;;0.40;0.40;;;-1.30;99.90;;;;;;5248381;28;20030;-74
2022/03/11 06:55:47;;;;;;;0.40;0.40;;;-1.20;99.90;;;;;;5213810;28;20052;-76
2022/03/11 06:58:19;;;;;;;0.53;0.53;;;-1.10;99.90;;;;;;5242884;28;20039;-76
2022/03/11 07:00:53;;;;;;;1.33;1.23;;;-1.10;99.90;;;;;;5233669;28;20040;-76
2022/03/11 07:03:24;;;;;;;0.47;0.47;;;-1.10;99.90;;;;;;5253515;28;20032;-78
2022/03/11 07:05:59;;;;;;;0.40;0.40;;;-1.00;99.90;;;;;;5222048;28;20045;-77
2022/03/11 07:08:33;;;;;;;0.50;0.50;;;-0.80;99.90;;;;;;5256025;28;20027;-81
2022/03/11 07:11:06;;;;;;;0.45;0.45;;;-0.60;99.90;;;;;;5252206;28;20040;-77
2022/03/11 07:13:37;;;;;;;0.30;0.30;;;-0.40;99.90;;;;;;5254448;28;20042;-77
2022/03/11 07:16:10;;;;;;;0.30;0.30;;;-0.40;99.90;;;;;;5259216;28;20043;-80
2022/03/11 07:18:43;;;;;;;1.60;1.50;;;-0.30;99.90;;;;;;5259908;28;20032;-82
2022/03/11 07:21:17;;;;;;;0.50;0.50;;;-0.30;99.90;;;;;;5247888;28;20044;-81
2022/03/11 07:23:54;;;;;;;0.60;0.60;;;-0.20;99.90;;;;;;5224265;28;20552;-81
2022/03/11 07:26:25;;;;;;;0.40;0.40;;;-0.20;99.90;;;;;;5233225;28;20056;-79
2022/03/11 07:28:59;;;;;;;0.60;0.60;;;-0.30;99.90;;;;;;5239561;28;20032;-82
2022/03/11 07:31:31;;;;;;;0.55;0.55;;;-0.30;99.90;;;;;;5271690;28;20039;-80
2022/03/11 07:34:03;;;;;;;0.40;0.40;;;-0.10;99.90;;;;;;5257895;28;20043;-79
2022/03/11 07:36:36;;;;;;;0.50;0.50;;;0.20;99.90;;;;;;5253225;28;20040;-80
2022/03/11 07:39:12;;;;;;;1.65;1.55;;;0.00;99.90;;;;;;5234792;28;20040;-79
2022/03/11 07:41:49;;;;;;;0.40;0.40;;;0.10;99.90;;;;;;5248710;28;20033;-80
2022/03/11 07:44:21;;;;;;;0.70;0.70;;;0.10;99.90;;;;;;5256787;28;20310;-79
2022/03/11 07:47:00;;;;;;;0.57;0.57;;;0.20;99.90;;;;;;5267606;28;20028;-79
2022/03/11 07:49:37;;;;;;;0.85;0.85;;;-0.10;99.90;;;;;;5260755;28;20048;-79
2022/03/11 07:52:15;;;;;;;1.58;1.55;;;0.20;99.90;;;;;;5252705;28;20027;-82
2022/03/11 07:54:51;;;;;;;0.40;0.40;;;0.30;99.90;;;;;;5237431;28;20024;-81
2022/03/11 07:57:23;;;;;;;1.25;1.15;;;0.80;99.90;;;;;;5255108;28;20032;-82
2022/03/11 07:59:54;;;;;;;0.32;0.32;;;0.50;99.90;;;;;;5267335;28;20020;-84
2022/03/11 08:02:27;;;;;;;0.52;0.52;;;0.50;99.90;;;;;;5273780;28;20024;-81
2022/03/11 08:05:14;;;;;;;0.60;0.60;;;0.80;99.90;;;;;;5217770;28;20054;-82
2022/03/11 08:07:50;;;;;;;0.45;0.45;;;1.10;99.90;;;;;;5227334;28;20046;-81
2022/03/11 08:10:22;;;;;;;0.40;0.40;;;1.10;99.90;;;;;;5258728;28;20038;-83
2022/03/11 08:12:53;;;;;;;0.70;0.70;;;1.30;99.90;;;;;;5281828;28;20020;-81
2022/03/11 08:15:27;;;;;;;0.57;0.57;;;0.80;99.90;;;;;;5241914;28;20028;-81
2022/03/11 08:18:03;;;;;;;;;;;1.20;99.90;;;;;;5258493;28;20035;-81
2022/03/11 08:20:34;;;;;;;;;;;1.60;99.90;;;;;;5247041;28;20366;-82
2022/03/11 08:23:09;;;;;;;0.45;0.45;;;1.70;99.90;;;;;;5251769;28;19915;-82
2022/03/11 08:25:43;;;;;;;1.42;0.95;;;1.60;99.90;;;;;;5230075;28;20040;-83
2022/03/11 08:28:21;;;;;;;0.60;0.60;;;2.10;99.90;;;;;;5267146;28;20046;-81
2022/03/11 08:30:54;;;;;;;0.93;0.93;;;2.50;99.90;;;;;;5257045;28;20044;-82
2022/03/11 08:33:30;;;;;;;0.40;0.40;;;2.40;99.90;;;;;;5240151;28;20050;-80
2022/03/11 08:36:08;;;;;;;0.52;0.52;;;2.20;99.90;;;;;;5237428;28;20202;-79
2022/03/11 08:38:40;;;;;;;0.57;0.57;;;1.70;99.90;;;;;;5262566;28;20034;-80
2022/03/11 08:41:14;;;;;;;1.73;1.63;;;1.70;99.90;;;;;;5247220;28;20047;-78
2022/03/11 08:43:55;;;;;;;0.63;0.63;;;1.70;99.90;;;;;;5262187;28;20032;-78
2022/03/11 08:46:30;;;;;;;0.40;0.40;;;2.20;99.90;;;;;;5259268;28;20040;-78
2022/03/11 08:49:07;;;;;;;0.52;0.52;;;2.00;99.90;;;;;;5238699;28;20074;-78
2022/03/11 08:51:43;;;;;;;0.60;0.60;;;2.30;99.90;;;;;;5220852;28;20050;-79
2022/03/11 08:54:20;;;;;;;0.85;0.85;;;2.40;99.90;;;;;;5237915;28;20038;-80
2022/03/11 08:56:59;;;;;;;0.60;0.60;;;2.50;99.90;;;;;;5245651;28;20021;-79
2022/03/11 08:59:31;;;;;;;0.40;0.40;;;2.30;99.90;;;;;;5251834;28;20050;-78
2022/03/11 09:02:07;;;;;;;0.90;0.90;;;2.10;99.90;;;;;;5268465;28;20070;-80
2022/03/11 09:04:42;;;;;;;0.60;0.60;;;2.20;99.90;;;;;;5238959;28;20054;-80
2022/03/11 09:07:17;;;;;;;0.80;0.80;;;2.60;99.90;;;;;;5252221;28;20047;-78
2022/03/11 09:09:52;;;;;;;0.43;0.43;;;2.90;99.90;;;;;;5264112;28;20317;-79
2022/03/11 09:12:26;;;;;;;0.40;0.40;;;2.60;99.90;;;;;;5238120;28;20039;-79
2022/03/11 09:15:00;;;;;;;;;;;2.60;99.90;;;;;;5250544;28;20043;-81
2022/03/11 09:17:33;;;;;;;0.70;0.70;;;2.90;99.90;;;;;;5232728;28;20152;-79
2022/03/11 09:20:06;;;;;;;1.00;1.00;;;2.70;99.90;;;;;;5232449;28;20462;-80
2022/03/11 09:22:39;;;;;;;0.45;0.45;;;2.80;99.90;;;;;;5231592;28;20045;-78
2022/03/11 09:25:15;;;;;;;0.70;0.70;;;2.90;99.90;;;;;;5245676;28;20545;-79
2022/03/11 09:27:49;;;;;;;0.70;0.70;;;2.90;99.90;;;;;;5231191;28;20032;-79
2022/03/11 09:30:21;;;;;;;0.40;0.40;;;3.20;99.90;;;;;;5252498;28;20050;-80
2022/03/11 09:32:55;;;;;;;5.68;1.33;;;3.60;99.90;;;;;;5246751;28;20447;-79
2022/03/11 09:35:29;;;;;;;1.67;1.65;;;3.90;99.90;;;;;;5239969;28;20031;-78
2022/03/11 09:38:00;;;;;;;0.65;0.65;;;3.90;99.90;;;;;;5250110;28;20047;-78
2022/03/11 09:40:34;;;;;;;0.50;0.50;;;3.70;99.90;;;;;;5249097;28;20028;-79
2022/03/11 09:43:06;;;;;;;0.90;0.90;;;3.90;99.90;;;;;;5244782;28;20227;-80
2022/03/11 09:45:37;;;;;;;1.02;1.02;;;3.60;99.90;;;;;;5236231;28;20317;-78
2022/03/11 09:48:10;;;;;;;0.40;0.40;;;3.40;99.90;;;;;;5257452;28;20043;-77
2022/03/11 09:50:45;;;;;;;0.60;0.60;;;3.80;99.90;;;;;;5244251;28;20107;-79
2022/03/11 09:53:18;;;;;;;0.50;0.50;;;4.00;99.90;;;;;;5245594;28;20505;-78
2022/03/11 09:55:50;;;;;;;0.85;0.85;;;3.70;99.90;;;;;;5268934;28;20060;-78
2022/03/11 09:58:24;;;;;;;0.55;0.55;;;3.90;99.90;;;;;;5253373;28;20028;-79
2022/03/11 10:00:56;;;;;;;0.80;0.80;;;4.20;99.90;;;;;;5275283;28;20031;-78
2022/03/11 10:03:30;;;;;;;0.45;0.45;;;4.10;99.90;;;;;;5256549;28;20071;-81
2022/03/11 10:06:04;;;;;;;;;;;4.60;99.90;;;;;;5244107;28;20055;-78
2022/03/11 10:08:49;;;;;;;0.50;0.50;;;3.90;99.90;;;;;;5245969;28;20105;-78
2022/03/11 10:11:24;;;;;;;0.40;0.40;;;4.00;99.90;;;;;;5256610;28;20050;-79
2022/03/11 10:14:06;;;;;;;0.52;0.52;;;4.20;99.90;;;;;;5253763;28;20040;-78
2022/03/11 10:16:38;;;;;;;1.13;1.13;;;5.00;99.90;;;;;;5243299;28;20044;-80
2022/03/11 10:19:15;;;;;;;0.82;0.82;;;4.80;99.90;;;;;;5270981;28;20044;-81
2022/03/11 10:21:50;;;;;;;0.73;0.73;;;5.20;99.90;;;;;;5255808;28;20032;-81
2022/03/11 10:24:22;;;;;;;0.70;0.70;;;5.60;99.90;;;;;;5269009;28;20032;-79
2022/03/11 10:27:01;;;;;;;0.52;0.52;;;4.60;99.90;;;;;;5265490;28;20032;-82
2022/03/11 10:29:36;;;;;;;0.50;0.50;;;4.70;99.90;;;;;;5250766;28;20070;-79
2022/03/11 10:32:07;;;;;;;0.95;0.95;;;5.50;99.90;;;;;;5239013;28;20075;-77
2022/03/11 10:34:39;;;;;;;0.60;0.60;;;6.20;99.90;;;;;;5249002;28;20037;-76
2022/03/11 10:37:14;;;;;;;0.65;0.65;;;6.00;99.90;;;;;;5263996;28;20020;-79
2022/03/11 10:39:48;;;;;;;0.80;0.80;;;6.10;99.90;;;;;;5263634;28;20040;-79
2022/03/11 10:42:27;;;;;;;1.67;1.63;;;5.10;99.90;;;;;;5255171;28;20032;-79
2022/03/11 10:45:08;;;;;;;0.50;0.50;;;6.00;99.90;;;;;;5234948;28;20052;-80
2022/03/11 10:47:41;;;;;;;0.40;0.40;;;6.60;99.90;;;;;;5259831;28;20028;-79
2022/03/11 10:50:17;;;;;;;0.80;0.80;;;7.50;99.90;;;;;;5265608;28;20038;-79
2022/03/11 10:52:51;;;;;;;1.65;1.60;;;7.50;99.90;;;;;;5238024;28;20039;-81
2022/03/11 10:55:26;;;;;;;0.70;0.70;;;7.60;99.90;;;;;;5269659;28;20012;-78
2022/03/11 10:58:01;;;;;;;0.73;0.73;;;5.50;99.90;;;;;;5260323;28;20024;-79
2022/03/11 11:00:39;;;;;;;0.75;0.75;;;7.00;99.90;;;;;;5269467;28;20046;-79
2022/03/11 11:03:16;;;;;;;0.52;0.52;;;7.60;99.90;;;;;;5232540;28;20055;-78
2022/03/11 11:05:51;;;;;;;0.52;0.52;;;7.10;99.90;;;;;;5234456;28;20059;-79
2022/03/11 11:08:23;;;;;;;0.70;0.70;;;6.80;99.90;;;;;;5269740;28;20038;-78
2022/03/11 11:10:55;;;;;;;0.70;0.70;;;7.10;99.90;;;;;;5229784;28;20048;-81
2022/03/11 11:13:28;;;;;;;0.70;0.70;;;7.90;99.90;;;;;;5239556;28;20386;-79
2022/03/11 11:16:06;;;;;;;1.23;0.82;;;8.60;99.90;;;;;;5232988;28;20051;-78
2022/03/11 11:18:44;;;;;;;0.50;0.50;;;8.90;99.90;;;;;;5260954;28;20027;-78
2022/03/11 11:21:24;;;;;;;1.00;1.00;;;8.30;99.90;;;;;;5252038;28;20598;-79
2022/03/11 11:24:01;;;;;;;0.60;0.60;;;9.40;99.40;;;;;;5251777;28;20050;-79
2022/03/11 11:26:32;;;;;;;0.68;0.68;;;8.10;99.70;;;;;;5233366;28;20060;-79
2022/03/11 11:29:08;;;;;;;0.88;0.88;;;7.90;98.80;;;;;;5240490;28;20058;-79
2022/03/11 11:31:42;;;;;;;1.15;1.15;;;7.90;99.00;;;;;;5258835;28;20054;-78
2022/03/11 11:34:38;;;;;;;0.82;0.82;;;8.10;98.70;;;;;;5245400;28;20081;-78
2022/03/11 11:37:39;;;;;;;0.60;0.60;;;8.30;98.80;;;;;;5211913;28;20546;-79
2022/03/11 11:40:42;;;;;;;0.40;0.40;;;8.50;97.90;;;;;;5264306;28;20052;-75
2022/03/11 11:43:13;;;;;;;0.77;0.77;;;7.90;99.00;;;;;;5259381;28;20555;-79
2022/03/11 11:46:14;;;;;;;0.98;0.98;;;9.10;98.30;;;;;;5256357;28;20048;-78
2022/03/11 11:48:48;;;;;;;0.77;0.77;;;9.90;97.30;;;;;;5246575;28;20073;-80
2022/03/11 11:51:24;;;;;;;1.48;1.38;;;10.80;96.30;;;;;;5257835;28;20039;-80
2022/03/11 11:54:08;;;;;;;0.82;0.82;;;10.60;95.60;;;;;;5251490;28;20040;-78
2022/03/11 11:57:00;;;;;;;1.17;1.17;;;10.80;96.20;;;;;;5215635;28;20060;-79
2022/03/11 11:59:38;;;;;;;1.20;1.17;;;8.50;96.60;;;;;;5229021;28;20028;-78
2022/03/11 12:02:32;;;;;;;0.90;0.90;;;9.50;96.80;;;;;;5253419;28;20521;-79
2022/03/11 12:05:44;;;;;;;0.80;0.80;;;9.50;95.90;;;;;;5232848;28;20064;-81
2022/03/11 12:08:40;;;;;;;0.82;0.82;;;10.10;96.20;;;;;;5209399;28;20520;-79
2022/03/11 12:11:38;;;;;;;0.90;0.90;;;10.10;95.40;;;;;;5262240;28;20048;-81
2022/03/11 12:14:12;;;;;;;1.45;1.45;;;8.70;95.70;;;;;;5228947;28;20154;-79
2022/03/11 12:17:38;;;;;;;1.00;1.00;;;9.90;96.10;;;;;;5246677;28;20044;-79
2022/03/11 12:20:29;;;;;;;1.67;1.58;;;7.80;96.00;;;;;;5193015;28;20037;-80
2022/03/11 12:23:21;;;;;;;0.68;0.68;;;7.10;95.60;;;;;;5242398;28;20048;-80
2022/03/11 12:26:10;;;;;;;0.50;0.50;;;8.20;96.60;;;;;;5228015;28;20052;-79
2022/03/11 12:28:45;;;;;;;0.75;0.75;;;9.70;95.40;;;;;;5247755;28;20050;-79
2022/03/11 12:31:26;;;;;;;0.90;0.90;;;9.70;95.00;;;;;;5239523;28;20427;-78
2022/03/11 12:34:00;;;;;;;1.92;1.75;;;9.80;96.10;;;;;;5236644;28;20031;-79
2022/03/11 12:36:39;;;;;;;0.90;0.90;;;9.60;94.90;;;;;;5214430;28;20040;-81
2022/03/11 12:39:16;;;;;;;0.65;0.65;;;10.30;95.10;;;;;;5244636;28;20051;-79
2022/03/11 12:41:53;;;;;;;0.98;0.98;;;10.30;94.90;;;;;;5263608;28;20028;-78
2022/03/11 12:44:28;;;;;;;1.85;1.75;;;10.40;93.80;;;;;;5262455;28;20043;-79
2022/03/11 12:46:59;;;;;;;1.33;1.23;;;10.40;93.40;;;;;;5261337;28;20362;-78
2022/03/11 12:49:31;;;;;;;1.25;1.25;;;10.20;94.00;;;;;;5226230;28;20456;-80
2022/03/11 12:52:21;;;;;;;0.80;0.80;;;10.90;93.70;;;;;;5242908;28;20054;-80
2022/03/11 12:54:52;;;;;;;0.80;0.80;;;11.50;93.20;;;;;;5253180;28;20028;-81
2022/03/11 12:57:24;;;;;;;0.47;0.47;;;10.80;93.20;;;;;;5263613;28;20036;-80
2022/03/11 12:59:56;;;;;;;0.70;0.70;;;9.20;92.70;;;;;;5239853;28;20036;-79
2022/03/11 13:02:33;;;;;;;1.13;1.13;;;8.80;93.40;;;;;;5225242;28;20075;-79
2022/03/11 13:05:18;;;;;;;2.53;2.15;;;9.50;93.00;;;;;;5247494;28;20064;-79
2022/03/11 13:07:51;;;;;;;;;;;9.30;92.60;;;;;;5259420;28;20040;-79
2022/03/11 13:10:27;;;;;;;0.98;0.98;;;9.70;92.40;;;;;;5237415;28;19920;-80
2022/03/11 13:13:03;;;;;;;0.70;0.70;;;10.70;91.40;;;;;;5268131;28;20054;-79
2022/03/11 13:15:38;;;;;;;0.80;0.80;;;10.80;91.30;;;;;;5250476;28;20387;-78
2022/03/11 13:18:11;;;;;;;;;;;10.20;91.70;;;;;;5258557;28;20036;-82
2022/03/11 13:21:03;;;;;;;0.60;0.60;;;10.50;91.60;;;;;;5250991;28;19930;-80
2022/03/11 13:23:45;;;;;;;1.10;1.10;;;9.00;92.30;;;;;;5264092;28;20389;-81
2022/03/11 13:26:22;;;;;;;0.80;0.80;;;8.90;93.30;;;;;;5245735;28;20066;-79
2022/03/11 13:28:56;;;;;;;0.68;0.68;;;9.90;92.30;;;;;;5228171;28;20045;-78
2022/03/11 13:31:32;;;;;;;1.20;1.15;;;10.20;91.70;;;;;;5262207;28;20248;-78
2022/03/11 13:34:12;;;;;;;0.80;0.80;;;10.20;92.10;;;;;;5232963;28;20040;-78
2022/03/11 13:36:46;;;;;;;0.57;0.57;;;10.40;90.80;;;;;;5260807;28;20042;-79